Pataskala, OH (43062)

12:21 AM EDT on October 01, 2016 (GMT -0400)
Jefferson Ridge | | Change Station

Elev 1200 ft 40.02 °N, 82.64 °W | Updated 1 minute ago

Mostly Cloudy
Mostly Cloudy
60.1 °F
Feels Like 60.1 °F
N
0.0
Wind Variable Wind from East
Gusts 0.0 mph

Today
High -- | Low -- °F
--% Chance of Precip.
Yesterday
High -- | Low -- °F
Precip. -- in
Pressure 30.02 in
Visibility 10.0 miles
Clouds Few 2100 ft
Scattered Clouds 2600 ft
Mostly Cloudy 8500 ft
Dew Point 60 °F
Humidity 100%
Rainfall 0.00 in
Snow Depth Not available.
7:27 AM 7:12 PM
New Moon, 0% visible
SPECI KCMH 010419Z 17003KT 10SM FEW021 SCT026 BKN085 16/16 A3002 RMK AO2 CIG 022 NW T01610161
Pressure 30.02 in
Visibility 10.0 miles
Clouds Few 2100 ft
Scattered Clouds 2600 ft
Mostly Cloudy 8500 ft
Dew Point 60 °F
Humidity 100%
Rainfall 0.00 in
Snow Depth Not available.
7:27 AM 7:12 PM
New Moon, 0% visible
SPECI KCMH 010419Z 17003KT 10SM FEW021 SCT026 BKN085 16/16 A3002 RMK AO2 CIG 022 NW T01610161

10-Day Weather Forecast

Almanac

Astronomy

Oct. 01, 2016 Rise Set
Actual Time
Civil Twilight
Nautical Twilight
Astronomical Twilight
Moon
Length of Visible Light
Length of Day
Tomorrow will be .
, % of the Moon is Illuminated

Today's Extremes

State Highs State Lows

Community

WunderPhotos

Upload Photos

1,942,887 photos uploaded!

WunderBlog® & News

Nearby

Air Quality

  Air Quality AQ Index Pollutant
Not available.

Snow Depth

Station Depth Elevation

Earthquake Activity

City Distance Mag. Time & Date
Minimum magnitude displayed is 2.5.

Coastal Water Temperatures

Place Temperature

Stations

Nearby Weather Stations

Station Location Temp. Windchill Dew Point Humidity Wind Precip. Elev Updated Type
                   

Watches & Warnings

There are currently no watches in effect.